Time;durP1;ratioP1;P1;durP2;ratioP2;P2;SDS_P1;SDS_P2;PMS_P1;PMS_P2;Temp;Humidity;BMP_temperature;BMP_pressure;BME280_temperature;BME280_humidity;BME280_pressure;Samples;Min_cycle;Max_cycle;Signal;HPM_P1;HPM_P2
2021/12/14 00:01:39;;;;;;;30.27;19.73;;;;;;;;;;5015971;28;20025;-75
2021/12/14 00:04:10;;;;;;;33.40;19.90;;;;;;;;;;5015846;28;20045;-75
2021/12/14 00:06:36;;;;;;;35.17;19.48;;;;;;;;;;5013861;28;20026;-75
2021/12/14 00:09:04;;;;;;;28.35;17.40;;;;;;;;;;4996472;28;20033;-76
2021/12/14 00:16:43;;;;;;;19.83;14.68;;;;;;;;;;5005672;28;20034;-75
2021/12/14 00:19:09;;;;;;;21.30;12.85;;;;;;;;;;4994354;28;20057;-76
2021/12/14 00:21:36;;;;;;;16.98;12.32;;;;;;;;;;4997842;28;20029;-75
2021/12/14 00:24:07;;;;;;;19.98;14.00;;;;;;;;;;4995817;28;20031;-75
2021/12/14 00:26:42;;;;;;;18.25;13.70;;;;;;;;;;4996302;28;20029;-75
2021/12/14 00:29:10;;;;;;;19.23;13.55;;;;;;;;;;5012212;28;20025;-75
2021/12/14 00:31:37;;;;;;;18.65;12.65;;;;;;;;;;4995851;28;20146;-75
2021/12/14 00:34:05;;;;;;;21.20;14.02;;;;;;;;;;4995736;28;20026;-76
2021/12/14 00:36:31;;;;;;;18.58;12.38;;;;;;;;;;5010763;28;20030;-76
2021/12/14 00:38:57;;;;;;;19.50;11.82;;;;;;;;;;5001106;28;20041;-75
2021/12/14 00:41:28;;;;;;;15.98;11.82;;;;;;;;;;5010135;28;20041;-75
2021/12/14 00:43:54;;;;;;;19.92;13.30;;;;;;;;;;5014764;28;20032;-75
2021/12/14 00:46:21;;;;;;;20.15;12.23;;;;;;;;;;5013869;28;20048;-76
2021/12/14 00:48:49;;;;;;;16.45;11.60;;;;;;;;;;5015348;28;20514;-75
2021/12/14 00:51:17;;;;;;;19.25;13.07;;;;;;;;;;5016456;28;20080;-75
2021/12/14 00:53:43;;;;;;;17.27;12.80;;;;;;;;;;5013789;28;20489;-75
2021/12/14 00:56:10;;;;;;;18.40;11.32;;;;;;;;;;5014469;28;20554;-75
2021/12/14 00:58:37;;;;;;;14.75;13.00;;;;;;;;;;5008400;28;20027;-74
2021/12/14 01:01:11;;;;;;;17.88;12.13;;;;;;;;;;4995279;28;20109;-75
2021/12/14 01:03:39;;;;;;;20.23;13.15;;;;;;;;;;4995597;28;20485;-75
2021/12/14 01:06:09;;;;;;;19.63;11.82;;;;;;;;;;5015457;28;20037;-74
2021/12/14 01:08:39;;;;;;;18.13;12.57;;;;;;;;;;4995209;28;20068;-75
2021/12/14 01:11:08;;;;;;;18.75;11.90;;;;;;;;;;4995597;28;20030;-75
2021/12/14 01:13:41;;;;;;;20.80;13.85;;;;;;;;;;5013061;28;20041;-75
2021/12/14 01:16:19;;;;;;;32.80;20.40;;;;;;;;;;5010022;28;20038;-75
2021/12/14 01:19:00;;;;;;;23.52;15.98;;;;;;;;;;5010115;28;20027;-75
2021/12/14 01:24:21;;;;;;;23.70;17.20;;;;;;;;;;4998255;28;20108;-76
2021/12/14 01:26:47;;;;;;;22.35;14.43;;;;;;;;;;5001813;28;20686;-76
2021/12/14 01:29:16;;;;;;;21.35;14.80;;;;;;;;;;4994725;28;20469;-75
2021/12/14 01:31:43;;;;;;;23.15;13.60;;;;;;;;;;4995056;28;20073;-76
2021/12/14 01:34:15;;;;;;;29.50;20.25;;;;;;;;;;5013806;28;20127;-75
2021/12/14 01:36:46;;;;;;;23.15;15.48;;;;;;;;;;5014204;28;20025;-75
2021/12/14 01:41:46;;;;;;;23.67;12.70;;;;;;;;;;5014060;28;20088;-75
2021/12/14 01:44:12;;;;;;;16.77;12.80;;;;;;;;;;5012073;28;20043;-75
2021/12/14 01:46:41;;;;;;;23.88;13.15;;;;;;;;;;5011411;28;20030;-75
2021/12/14 01:49:09;;;;;;;23.83;15.43;;;;;;;;;;5002395;28;20638;-75
2021/12/14 01:51:39;;;;;;;24.02;14.88;;;;;;;;;;4994231;28;20143;-74
2021/12/14 01:54:07;;;;;;;18.92;12.95;;;;;;;;;;4995198;28;20039;-75
2021/12/14 01:56:34;;;;;;;22.88;14.98;;;;;;;;;;4993330;28;20030;-74
2021/12/14 01:59:07;;;;;;;19.27;13.80;;;;;;;;;;5002719;28;20034;-75
2021/12/14 02:01:46;;;;;;;22.42;15.05;;;;;;;;;;5009360;28;20048;-74
2021/12/14 02:04:15;;;;;;;17.48;13.32;;;;;;;;;;5011292;28;20080;-75
2021/12/14 02:06:41;;;;;;;21.80;13.43;;;;;;;;;;5013574;28;20026;-75
2021/12/14 02:09:11;;;;;;;18.38;12.48;;;;;;;;;;5012527;28;20029;-75
2021/12/14 02:11:40;;;;;;;18.63;12.38;;;;;;;;;;5010595;28;20074;-74
2021/12/14 02:14:07;;;;;;;21.00;13.43;;;;;;;;;;5011183;28;20029;-75
2021/12/14 02:16:34;;;;;;;20.20;12.90;;;;;;;;;;5028396;28;20032;-76
2021/12/14 02:19:05;;;;;;;15.57;12.00;;;;;;;;;;5013574;28;20068;-74
2021/12/14 02:21:32;;;;;;;16.80;11.73;;;;;;;;;;5013885;28;20052;-76
2021/12/14 02:23:59;;;;;;;20.55;14.10;;;;;;;;;;5012218;28;20076;-75
2021/12/14 02:26:29;;;;;;;22.58;14.43;;;;;;;;;;5005920;28;20026;-75
2021/12/14 02:28:56;;;;;;;16.02;12.07;;;;;;;;;;5013302;28;20014;-75
2021/12/14 02:31:24;;;;;;;19.17;13.68;;;;;;;;;;5006343;28;20043;-75
2021/12/14 02:33:51;;;;;;;16.05;11.55;;;;;;;;;;5015666;28;20033;-76
2021/12/14 02:36:25;;;;;;;21.65;16.75;;;;;;;;;;5006756;28;20374;-77
2021/12/14 02:39:04;;;;;;;19.58;11.63;;;;;;;;;;4993498;28;20072;-76
2021/12/14 02:41:30;;;;;;;24.15;15.00;;;;;;;;;;4989110;28;20120;-76
2021/12/14 02:43:57;;;;;;;19.73;12.70;;;;;;;;;;5010818;28;20036;-76
2021/12/14 02:46:25;;;;;;;22.08;13.52;;;;;;;;;;5012665;28;20026;-75
2021/12/14 02:48:54;;;;;;;14.13;9.65;;;;;;;;;;5011022;28;20029;-75
2021/12/14 02:51:29;;;;;;;15.52;9.93;;;;;;;;;;5012929;28;20041;-74
2021/12/14 02:53:57;;;;;;;14.30;8.30;;;;;;;;;;5011823;28;20081;-75
2021/12/14 02:56:25;;;;;;;13.43;8.85;;;;;;;;;;5004042;28;20030;-75
2021/12/14 02:58:56;;;;;;;15.85;9.90;;;;;;;;;;5000253;28;20029;-76
2021/12/14 03:01:22;;;;;;;12.68;9.35;;;;;;;;;;5012399;28;20026;-75
2021/12/14 03:03:48;;;;;;;17.85;10.73;;;;;;;;;;5006264;28;20035;-76
2021/12/14 03:06:20;;;;;;;16.05;9.13;;;;;;;;;;4992314;28;20049;-76
2021/12/14 03:08:57;;;;;;;14.45;10.02;;;;;;;;;;4992242;28;20366;-76
2021/12/14 03:11:24;;;;;;;10.95;9.50;;;;;;;;;;4992342;28;20022;-75
2021/12/14 03:13:52;;;;;;;13.82;8.80;;;;;;;;;;4996528;28;20029;-76
2021/12/14 03:16:24;;;;;;;13.73;9.85;;;;;;;;;;5004904;28;20519;-75
2021/12/14 03:18:50;;;;;;;13.00;9.43;;;;;;;;;;4992262;28;20035;-75
2021/12/14 03:21:21;;;;;;;15.85;9.43;;;;;;;;;;4997337;28;20488;-75
2021/12/14 03:23:52;;;;;;;16.65;8.55;;;;;;;;;;4999903;28;20489;-75
2021/12/14 03:26:20;;;;;;;14.70;9.73;;;;;;;;;;4995770;28;20022;-75
2021/12/14 03:28:49;;;;;;;10.88;7.07;;;;;;;;;;4995619;28;20015;-76
2021/12/14 03:31:35;;;;;;;8.88;6.10;;;;;;;;;;4995610;28;20026;-77
2021/12/14 03:34:04;;;;;;;12.98;6.20;;;;;;;;;;5012974;28;20428;-75
2021/12/14 03:36:41;;;;;;;8.15;5.18;;;;;;;;;;5010671;28;20136;-75
2021/12/14 03:39:12;;;;;;;8.98;5.53;;;;;;;;;;5001897;28;20058;-74
2021/12/14 03:41:41;;;;;;;12.77;6.68;;;;;;;;;;4995418;28;20034;-75
2021/12/14 03:44:09;;;;;;;7.95;5.70;;;;;;;;;;5012480;28;20037;-76
2021/12/14 03:46:38;;;;;;;9.98;5.65;;;;;;;;;;5000543;28;20516;-75
2021/12/14 03:49:05;;;;;;;8.45;4.75;;;;;;;;;;5018482;28;20033;-75
2021/12/14 03:51:32;;;;;;;8.65;5.43;;;;;;;;;;5012644;28;20022;-75
2021/12/14 03:53:59;;;;;;;6.10;4.68;;;;;;;;;;4969010;28;1307960;-75
2021/12/14 03:56:25;;;;;;;7.47;4.10;;;;;;;;;;5012244;28;20018;-75
2021/12/14 03:58:52;;;;;;;8.98;5.00;;;;;;;;;;5008902;28;20030;-75
2021/12/14 04:01:21;;;;;;;9.20;4.80;;;;;;;;;;5015982;28;20636;-75
2021/12/14 04:03:53;;;;;;;7.28;4.50;;;;;;;;;;5003817;28;20511;-75
2021/12/14 04:06:19;;;;;;;7.78;4.88;;;;;;;;;;4996296;28;20054;-75
2021/12/14 04:08:46;;;;;;;6.85;4.13;;;;;;;;;;4994970;28;20018;-74
2021/12/14 04:11:12;;;;;;;6.53;4.25;;;;;;;;;;4999392;28;21408;-75
2021/12/14 04:13:43;;;;;;;7.22;4.70;;;;;;;;;;5015039;28;20508;-75
2021/12/14 04:16:11;;;;;;;7.40;4.10;;;;;;;;;;5015572;28;20104;-75
2021/12/14 04:18:37;;;;;;;9.25;4.97;;;;;;;;;;5004091;28;20034;-75
2021/12/14 04:21:05;;;;;;;11.73;5.10;;;;;;;;;;4995996;28;20097;-75
2021/12/14 04:23:34;;;;;;;8.18;4.20;;;;;;;;;;4998328;28;20031;-77
2021/12/14 04:26:01;;;;;;;6.15;4.30;;;;;;;;;;4996229;28;20033;-74
2021/12/14 04:28:30;;;;;;;8.25;4.07;;;;;;;;;;4996094;28;20031;-75
2021/12/14 04:30:57;;;;;;;7.82;4.45;;;;;;;;;;4995776;28;20031;-76
2021/12/14 04:33:26;;;;;;;9.02;4.82;;;;;;;;;;4998535;28;20493;-76
2021/12/14 04:35:53;;;;;;;7.60;4.75;;;;;;;;;;4998805;28;20083;-76
2021/12/14 04:38:26;;;;;;;10.65;5.65;;;;;;;;;;5014286;28;20033;-77
2021/12/14 04:52:00;;;;;;;15.70;6.72;;;;;;;;;;4995552;28;20475;-75
2021/12/14 04:54:31;;;;;;;16.27;7.55;;;;;;;;;;5008702;28;20076;-76
2021/12/14 04:56:58;;;;;;;14.45;7.18;;;;;;;;;;5014062;28;20084;-75
2021/12/14 04:59:29;;;;;;;14.23;7.32;;;;;;;;;;5013321;28;20570;-76
2021/12/14 05:01:59;;;;;;;16.63;7.57;;;;;;;;;;5010333;28;20030;-76
2021/12/14 05:04:26;;;;;;;14.23;7.47;;;;;;;;;;4995706;28;20113;-75
2021/12/14 05:06:56;;;;;;;11.15;7.20;;;;;;;;;;4995280;28;20026;-75
2021/12/14 05:09:28;;;;;;;13.15;7.15;;;;;;;;;;5010234;28;20026;-75
2021/12/14 05:11:56;;;;;;;11.82;6.40;;;;;;;;;;4995211;28;20026;-75
2021/12/14 05:14:23;;;;;;;11.45;6.70;;;;;;;;;;4996002;28;20110;-76
2021/12/14 05:16:57;;;;;;;12.45;5.95;;;;;;;;;;4995013;28;20062;-75
2021/12/14 05:19:25;;;;;;;10.32;5.85;;;;;;;;;;4995042;28;20084;-75
2021/12/14 05:21:51;;;;;;;11.38;5.68;;;;;;;;;;4999791;28;20105;-75
2021/12/14 05:24:21;;;;;;;12.45;5.20;;;;;;;;;;5014289;28;20496;-76
2021/12/14 05:26:51;;;;;;;11.45;6.28;;;;;;;;;;5014418;28;20033;-75
2021/12/14 05:29:22;;;;;;;11.93;5.75;;;;;;;;;;5008773;28;20065;-76
2021/12/14 05:31:50;;;;;;;12.63;6.97;;;;;;;;;;4999543;28;20083;-75
2021/12/14 05:34:16;;;;;;;14.15;7.28;;;;;;;;;;5013096;28;20121;-76
2021/12/14 05:36:43;;;;;;;11.75;5.97;;;;;;;;;;5010047;28;20034;-75
2021/12/14 05:44:13;;;;;;;12.70;6.50;;;;;;;;;;5013233;28;20026;-76
2021/12/14 05:46:39;;;;;;;11.15;6.43;;;;;;;;;;5012182;28;20054;-76
2021/12/14 05:49:08;;;;;;;11.10;6.53;;;;;;;;;;5013608;28;20026;-75
2021/12/14 05:51:35;;;;;;;10.27;6.63;;;;;;;;;;5011667;28;20014;-74
2021/12/14 05:54:01;;;;;;;12.50;7.15;;;;;;;;;;5008773;28;20072;-76
2021/12/14 05:56:29;;;;;;;10.63;6.28;;;;;;;;;;4994239;28;20085;-75
2021/12/14 05:58:55;;;;;;;11.45;6.90;;;;;;;;;;4995283;28;20034;-75
2021/12/14 06:01:23;;;;;;;9.98;6.32;;;;;;;;;;5009765;28;20458;-75
2021/12/14 06:03:53;;;;;;;11.95;6.47;;;;;;;;;;4994366;28;20061;-76
2021/12/14 06:06:21;;;;;;;11.10;6.20;;;;;;;;;;4994045;28;20417;-74
2021/12/14 06:08:47;;;;;;;12.63;6.95;;;;;;;;;;4993992;28;20046;-75
2021/12/14 06:11:21;;;;;;;12.43;6.90;;;;;;;;;;4999226;28;20027;-76
2021/12/14 06:13:48;;;;;;;11.15;6.88;;;;;;;;;;5013307;28;20018;-75
2021/12/14 06:16:31;;;;;;;11.23;6.75;;;;;;;;;;5006962;28;20500;-75
2021/12/14 06:19:14;;;;;;;12.52;6.47;;;;;;;;;;5004343;28;20492;-75
2021/12/14 06:21:40;;;;;;;11.68;6.22;;;;;;;;;;5012170;28;20029;-75
2021/12/14 06:24:08;;;;;;;12.30;6.28;;;;;;;;;;5005636;28;20472;-76
2021/12/14 06:26:42;;;;;;;14.30;8.07;;;;;;;;;;5001165;28;20420;-75
2021/12/14 06:29:12;;;;;;;11.70;6.78;;;;;;;;;;5013529;28;20054;-74
2021/12/14 06:31:41;;;;;;;11.20;8.10;;;;;;;;;;5012743;28;20029;-77
2021/12/14 06:34:13;;;;;;;11.90;7.03;;;;;;;;;;5007494;28;20030;-76
2021/12/14 06:36:50;;;;;;;12.88;6.93;;;;;;;;;;5004899;28;20030;-75
2021/12/14 06:39:17;;;;;;;10.38;6.57;;;;;;;;;;4996690;28;20022;-78
2021/12/14 06:41:43;;;;;;;8.38;6.13;;;;;;;;;;5004814;28;20105;-74
2021/12/14 06:44:09;;;;;;;10.48;6.47;;;;;;;;;;4993362;28;20037;-76
2021/12/14 06:46:37;;;;;;;10.25;7.05;;;;;;;;;;4993397;28;20023;-75
2021/12/14 06:49:07;;;;;;;10.63;6.63;;;;;;;;;;4993663;28;20097;-75
2021/12/14 06:51:35;;;;;;;9.80;6.85;;;;;;;;;;5007101;28;20034;-76
2021/12/14 06:54:03;;;;;;;9.13;6.05;;;;;;;;;;5012329;28;20489;-76
2021/12/14 06:56:31;;;;;;;10.38;6.82;;;;;;;;;;5011821;28;20088;-75
2021/12/14 06:58:59;;;;;;;10.13;6.78;;;;;;;;;;5013043;28;20392;-75
2021/12/14 07:01:30;;;;;;;8.77;6.15;;;;;;;;;;5008926;28;20512;-75
2021/12/14 07:04:02;;;;;;;9.50;6.68;;;;;;;;;;4994308;28;20397;-76
2021/12/14 07:06:34;;;;;;;11.00;7.25;;;;;;;;;;5008168;28;20031;-76
2021/12/14 07:09:09;;;;;;;11.00;7.25;;;;;;;;;;4994958;28;20029;-76
2021/12/14 07:11:36;;;;;;;9.25;6.22;;;;;;;;;;5002839;28;20049;-76
2021/12/14 07:14:03;;;;;;;12.95;7.57;;;;;;;;;;5004239;28;20030;-76
2021/12/14 07:16:37;;;;;;;11.82;7.00;;;;;;;;;;5005799;28;20101;-76
2021/12/14 07:19:05;;;;;;;11.77;6.80;;;;;;;;;;5011473;28;20048;-76
2021/12/14 07:21:37;;;;;;;11.57;7.03;;;;;;;;;;5001388;28;20030;-76
2021/12/14 07:24:18;;;;;;;11.45;7.47;;;;;;;;;;4994817;28;20500;-75
2021/12/14 07:26:44;;;;;;;13.45;7.43;;;;;;;;;;5002738;28;20088;-75
2021/12/14 07:29:10;;;;;;;11.18;7.80;;;;;;;;;;5000838;28;20036;-76
2021/12/14 07:31:42;;;;;;;11.85;7.72;;;;;;;;;;5012406;28;20026;-76
2021/12/14 07:34:08;;;;;;;13.00;7.18;;;;;;;;;;5009342;28;20076;-75
2021/12/14 07:36:37;;;;;;;13.07;7.45;;;;;;;;;;4986238;28;20114;-75
2021/12/14 07:39:07;;;;;;;11.98;8.10;;;;;;;;;;4993778;28;20494;-76
2021/12/14 07:41:53;;;;;;;12.27;7.60;;;;;;;;;;5007990;28;20367;-75
2021/12/14 07:44:21;;;;;;;13.30;7.95;;;;;;;;;;5006131;28;20551;-75
2021/12/14 07:46:59;;;;;;;11.32;6.72;;;;;;;;;;4999871;28;20499;-75
2021/12/14 07:49:25;;;;;;;15.00;9.05;;;;;;;;;;4998000;28;20109;-75
2021/12/14 07:52:14;;;;;;;11.57;6.32;;;;;;;;;;4996481;28;20424;-76
2021/12/14 07:54:45;;;;;;;10.50;6.65;;;;;;;;;;4996651;28;20378;-76
2021/12/14 07:57:17;;;;;;;10.57;6.82;;;;;;;;;;5007727;28;20473;-76
2021/12/14 07:59:45;;;;;;;11.02;6.60;;;;;;;;;;5003855;28;20384;-75
2021/12/14 08:02:13;;;;;;;14.50;7.18;;;;;;;;;;5012669;28;20022;-75
2021/12/14 08:04:41;;;;;;;11.93;7.32;;;;;;;;;;4997304;28;20026;-75
2021/12/14 08:07:07;;;;;;;9.30;6.70;;;;;;;;;;5007055;28;20022;-74
2021/12/14 08:09:33;;;;;;;11.25;6.85;;;;;;;;;;4997217;28;20026;-75
2021/12/14 08:12:00;;;;;;;8.15;5.32;;;;;;;;;;4996803;28;20504;-76
2021/12/14 08:14:27;;;;;;;10.02;6.50;;;;;;;;;;4989027;28;20086;-76
2021/12/14 08:16:59;;;;;;;12.18;7.57;;;;;;;;;;4986271;28;20037;-74
2021/12/14 08:19:36;;;;;;;11.95;6.60;;;;;;;;;;4983102;28;20057;-76
2021/12/14 08:22:13;;;;;;;10.80;6.20;;;;;;;;;;4991243;28;20693;-77
2021/12/14 08:24:39;;;;;;;10.68;6.80;;;;;;;;;;5017476;28;20037;-76
2021/12/14 08:27:06;;;;;;;9.75;6.95;;;;;;;;;;4995418;28;20109;-76
2021/12/14 08:29:34;;;;;;;10.60;6.70;;;;;;;;;;4991633;28;20034;-76
2021/12/14 08:32:12;;;;;;;11.73;7.13;;;;;;;;;;4997952;28;20026;-76
2021/12/14 08:34:40;;;;;;;10.73;7.60;;;;;;;;;;5012698;28;20061;-76
2021/12/14 08:37:26;;;;;;;9.85;6.53;;;;;;;;;;5003779;28;20026;-75
2021/12/14 08:39:52;;;;;;;;;;;;;;;;;;4986900;28;20031;-78
2021/12/14 08:42:23;;;;;;;9.23;6.30;;;;;;;;;;4993827;28;19940;-76
2021/12/14 08:44:55;;;;;;;9.85;6.45;;;;;;;;;;5001873;28;20054;-76
2021/12/14 08:47:25;;;;;;;10.82;6.80;;;;;;;;;;4980431;28;20042;-77
2021/12/14 08:49:53;;;;;;;12.48;6.45;;;;;;;;;;4989208;28;20069;-77
2021/12/14 08:52:20;;;;;;;11.18;6.68;;;;;;;;;;5002751;28;20365;-74
2021/12/14 08:54:46;;;;;;;8.40;5.25;;;;;;;;;;4990430;28;20549;-75
2021/12/14 08:57:14;;;;;;;9.68;5.45;;;;;;;;;;4987075;28;20105;-76
2021/12/14 08:59:43;;;;;;;9.13;5.55;;;;;;;;;;4990734;28;20038;-78
2021/12/14 09:02:12;;;;;;;8.35;6.07;;;;;;;;;;4981856;28;20510;-75
2021/12/14 09:04:42;;;;;;;8.13;5.20;;;;;;;;;;5000363;28;20054;-78
2021/12/14 09:07:12;;;;;;;7.65;5.07;;;;;;;;;;5000618;28;20041;-77
2021/12/14 09:09:40;;;;;;;7.85;4.57;;;;;;;;;;5006023;28;20058;-77
2021/12/14 09:12:08;;;;;;;10.52;5.05;;;;;;;;;;4995235;28;20385;-76
2021/12/14 09:14:35;;;;;;;7.00;5.05;;;;;;;;;;4985626;28;20027;-79
2021/12/14 09:17:02;;;;;;;6.82;4.65;;;;;;;;;;5008545;28;20555;-76
2021/12/14 09:19:31;;;;;;;8.60;4.68;;;;;;;;;;4992783;28;20383;-81
2021/12/14 09:21:59;;;;;;;6.70;4.85;;;;;;;;;;4983147;28;20037;-76
2021/12/14 09:24:26;;;;;;;6.82;4.93;;;;;;;;;;4994978;28;20030;-77
2021/12/14 09:26:55;;;;;;;6.40;4.90;;;;;;;;;;4996451;28;20018;-79
2021/12/14 09:29:22;;;;;;;5.68;3.97;;;;;;;;;;4991745;28;20034;-74
2021/12/14 09:31:50;;;;;;;6.13;4.25;;;;;;;;;;5004583;28;20038;-73
2021/12/14 09:34:17;;;;;;;7.03;4.60;;;;;;;;;;5003193;28;20026;-75
2021/12/14 09:36:44;;;;;;;5.88;4.32;;;;;;;;;;5005800;28;20033;-72
2021/12/14 09:39:22;;;;;;;6.35;4.20;;;;;;;;;;5006815;28;20022;-73
2021/12/14 09:41:53;;;;;;;5.32;4.07;;;;;;;;;;5004464;28;20033;-74
2021/12/14 09:44:21;;;;;;;10.57;4.60;;;;;;;;;;5012371;28;20042;-76
2021/12/14 09:46:48;;;;;;;6.07;4.28;;;;;;;;;;5015127;28;20029;-74
2021/12/14 09:49:16;;;;;;;7.45;4.68;;;;;;;;;;5010249;28;20762;-74
2021/12/14 09:51:51;;;;;;;8.57;4.72;;;;;;;;;;5008718;28;20482;-78
2021/12/14 09:54:18;;;;;;;5.45;4.25;;;;;;;;;;5011286;28;20053;-72
2021/12/14 09:56:50;;;;;;;5.82;4.18;;;;;;;;;;5000626;28;20026;-72
2021/12/14 09:59:17;;;;;;;6.38;3.90;;;;;;;;;;5006445;28;20034;-75
2021/12/14 10:01:52;;;;;;;5.65;4.20;;;;;;;;;;4991695;28;20481;-76
2021/12/14 10:04:21;;;;;;;5.82;3.85;;;;;;;;;;4995548;28;20065;-78
2021/12/14 10:06:49;;;;;;;6.13;4.53;;;;;;;;;;5000883;28;20389;-72
2021/12/14 10:09:18;;;;;;;5.47;3.78;;;;;;;;;;4999316;28;20114;-74
2021/12/14 10:14:35;;;;;;;4.47;3.58;;;;;;;;;;4985726;28;20054;-76
2021/12/14 10:17:01;;;;;;;5.72;4.15;;;;;;;;;;4988122;28;20432;-74
2021/12/14 10:19:29;;;;;;;5.63;3.72;;;;;;;;;;5004015;28;20045;-74
2021/12/14 10:21:57;;;;;;;7.13;3.97;;;;;;;;;;5001815;28;20026;-76
2021/12/14 10:24:24;;;;;;;5.57;3.83;;;;;;;;;;5011897;28;20127;-77
2021/12/14 10:26:53;;;;;;;5.85;3.75;;;;;;;;;;5007964;28;20366;-76
2021/12/14 10:29:19;;;;;;;9.73;4.93;;;;;;;;;;4999559;28;20053;-76
2021/12/14 10:31:48;;;;;;;5.60;4.10;;;;;;;;;;5002280;28;20036;-76
2021/12/14 10:34:18;;;;;;;5.03;3.90;;;;;;;;;;4997162;28;20026;-75
2021/12/14 10:36:47;;;;;;;6.07;3.10;;;;;;;;;;5002904;28;20036;-74
2021/12/14 10:39:23;;;;;;;5.53;4.07;;;;;;;;;;5010739;28;20068;-76
2021/12/14 10:45:12;;;;;;;6.18;4.43;;;;;;;;;;5021565;28;20091;-72
2021/12/14 10:47:41;;;;;;;4.78;3.70;;;;;;;;;;4985551;28;20042;-77
2021/12/14 10:50:11;;;;;;;4.47;4.03;;;;;;;;;;5006046;28;20444;-75
2021/12/14 10:52:42;;;;;;;4.80;3.70;;;;;;;;;;5011300;28;20030;-76
2021/12/14 10:55:12;;;;;;;5.55;3.90;;;;;;;;;;5006037;28;20050;-78
2021/12/14 10:57:38;;;;;;;6.43;4.25;;;;;;;;;;5003450;28;20049;-74
2021/12/14 11:00:15;;;;;;;6.10;4.18;;;;;;;;;;4995750;28;20037;-75
2021/12/14 11:02:42;;;;;;;5.15;4.40;;;;;;;;;;4992539;28;20034;-75
2021/12/14 11:05:16;;;;;;;5.15;3.88;;;;;;;;;;4997471;28;20026;-75
2021/12/14 11:07:45;;;;;;;6.32;3.42;;;;;;;;;;5003141;28;20408;-76
2021/12/14 11:10:14;;;;;;;4.85;3.97;;;;;;;;;;5006292;28;20030;-74
2021/12/14 11:12:42;;;;;;;4.53;3.65;;;;;;;;;;5004417;28;20102;-73
2021/12/14 11:15:12;;;;;;;3.95;3.28;;;;;;;;;;4985960;28;20058;-76
2021/12/14 11:20:26;;;;;;;3.45;3.15;;;;;;;;;;5000631;28;20056;-74
2021/12/14 11:22:52;;;;;;;4.13;3.67;;;;;;;;;;4989973;28;20037;-73
2021/12/14 11:25:21;;;;;;;6.95;3.70;;;;;;;;;;5006170;28;20026;-75
2021/12/14 11:27:49;;;;;;;4.50;3.17;;;;;;;;;;4999857;28;20097;-75
2021/12/14 11:30:23;;;;;;;4.90;3.55;;;;;;;;;;4990898;28;20490;-74
2021/12/14 11:33:01;;;;;;;4.55;3.55;;;;;;;;;;4993405;28;20053;-76
2021/12/14 11:35:30;;;;;;;3.83;3.25;;;;;;;;;;5000052;28;20076;-76
2021/12/14 11:37:59;;;;;;;3.45;2.90;;;;;;;;;;5000656;28;20168;-75
2021/12/14 11:40:26;;;;;;;3.45;2.78;;;;;;;;;;4999157;28;20173;-75
2021/12/14 11:42:53;;;;;;;3.08;2.67;;;;;;;;;;4994516;28;20035;-75
2021/12/14 11:45:22;;;;;;;4.28;2.67;;;;;;;;;;5001175;28;20054;-77
2021/12/14 11:47:50;;;;;;;4.15;2.95;;;;;;;;;;4989236;28;20034;-75
2021/12/14 11:50:22;;;;;;;3.97;2.80;;;;;;;;;;4997414;28;20725;-76
2021/12/14 11:52:51;;;;;;;3.13;2.47;;;;;;;;;;4987661;28;20057;-77
2021/12/14 11:55:20;;;;;;;4.18;2.65;;;;;;;;;;5005124;28;20042;-76
2021/12/14 11:57:47;;;;;;;4.97;2.80;;;;;;;;;;4992976;28;20082;-74
2021/12/14 12:00:16;;;;;;;3.42;2.45;;;;;;;;;;5010697;28;20029;-75
2021/12/14 12:02:42;;;;;;;3.15;2.85;;;;;;;;;;5015446;28;20048;-73
2021/12/14 12:05:20;;;;;;;4.05;2.97;;;;;;;;;;5016150;28;20427;-72
2021/12/14 12:10:38;;;;;;;4.32;2.70;;;;;;;;;;5020030;28;20076;-75
2021/12/14 12:13:04;;;;;;;4.90;3.20;;;;;;;;;;5001026;28;20034;-76
2021/12/14 12:15:54;;;;;;;3.80;2.75;;;;;;;;;;5020077;28;20062;-76
2021/12/14 12:18:23;;;;;;;3.40;2.85;;;;;;;;;;5015206;28;20087;-76
2021/12/14 12:20:50;;;;;;;2.95;2.58;;;;;;;;;;5021055;28;20056;-76
2021/12/14 12:23:21;;;;;;;4.68;2.70;;;;;;;;;;5005804;28;20062;-74
2021/12/14 12:25:49;;;;;;;4.00;2.85;;;;;;;;;;5010150;28;20022;-74
2021/12/14 12:28:22;;;;;;;4.22;2.80;;;;;;;;;;5022409;28;20385;-76
2021/12/14 12:30:53;;;;;;;3.28;2.70;;;;;;;;;;5007065;28;20081;-75
2021/12/14 12:33:24;;;;;;;4.82;3.25;;;;;;;;;;5024758;28;20029;-74
2021/12/14 12:35:53;;;;;;;3.67;2.88;;;;;;;;;;5005696;28;20076;-72
2021/12/14 12:38:19;;;;;;;3.05;2.75;;;;;;;;;;4995197;28;20054;-74
2021/12/14 12:40:49;;;;;;;3.03;2.72;;;;;;;;;;5002265;28;20026;-75
2021/12/14 12:43:24;;;;;;;5.22;2.90;;;;;;;;;;5010459;28;20427;-72
2021/12/14 12:46:02;;;;;;;4.47;2.78;;;;;;;;;;5003727;28;20075;-75
2021/12/14 12:48:59;;;;;;;2.95;2.65;;;;;;;;;;5005274;28;20535;-72
2021/12/14 12:51:43;;;;;;;4.38;2.47;;;;;;;;;;4986787;28;20070;-74
2021/12/14 12:54:16;;;;;;;6.63;3.05;;;;;;;;;;4989842;28;20074;-75
2021/12/14 12:56:43;;;;;;;3.15;2.47;;;;;;;;;;5002649;28;20029;-76
2021/12/14 12:59:10;;;;;;;3.25;2.50;;;;;;;;;;5002266;28;20037;-76
2021/12/14 13:01:36;;;;;;;3.42;3.13;;;;;;;;;;5000280;28;20095;-73
2021/12/14 13:04:03;;;;;;;2.75;2.30;;;;;;;;;;4992908;28;20035;-75
2021/12/14 13:06:29;;;;;;;3.67;2.25;;;;;;;;;;4989643;28;20038;-77
2021/12/14 13:08:58;;;;;;;4.47;2.88;;;;;;;;;;5001953;28;20036;-72
2021/12/14 13:11:32;;;;;;;3.80;2.50;;;;;;;;;;4992160;28;20042;-73
2021/12/14 13:14:13;;;;;;;4.20;2.50;;;;;;;;;;4982932;28;20038;-73
2021/12/14 13:16:49;;;;;;;3.22;2.65;;;;;;;;;;4986948;28;20034;-73
2021/12/14 13:19:15;;;;;;;3.47;2.60;;;;;;;;;;4996190;28;20038;-75
2021/12/14 13:21:41;;;;;;;2.90;2.50;;;;;;;;;;4994856;28;20037;-74
2021/12/14 13:24:07;;;;;;;3.03;2.40;;;;;;;;;;4977927;28;20090;-75
2021/12/14 13:26:51;;;;;;;4.80;2.95;;;;;;;;;;5000887;28;20394;-76
2021/12/14 13:29:20;;;;;;;2.92;2.40;;;;;;;;;;4978544;28;20105;-75
2021/12/14 13:31:51;;;;;;;3.00;2.70;;;;;;;;;;4980319;28;20026;-75
2021/12/14 13:34:21;;;;;;;3.83;2.72;;;;;;;;;;4994987;28;20039;-73
2021/12/14 13:36:47;;;;;;;3.92;2.65;;;;;;;;;;4994438;28;20034;-73
2021/12/14 13:39:14;;;;;;;3.25;2.75;;;;;;;;;;4980293;28;20042;-75
2021/12/14 13:42:19;;;;;;;4.13;2.80;;;;;;;;;;4975602;28;20038;-75
2021/12/14 13:44:50;;;;;;;3.60;2.53;;;;;;;;;;4915411;29;20524;-75
2021/12/14 13:47:17;;;;;;;3.33;2.63;;;;;;;;;;4915505;29;20046;-75
2021/12/14 13:49:43;;;;;;;5.18;2.70;;;;;;;;;;4949007;28;20049;-75
2021/12/14 13:52:12;;;;;;;4.10;2.80;;;;;;;;;;4985015;28;20046;-75
2021/12/14 13:54:57;;;;;;;4.70;2.63;;;;;;;;;;4994509;28;20649;-76
2021/12/14 13:57:23;;;;;;;6.55;2.95;;;;;;;;;;4981088;28;20039;-76
2021/12/14 13:59:49;;;;;;;6.10;2.85;;;;;;;;;;4980993;28;20022;-75
2021/12/14 14:02:15;;;;;;;4.15;2.75;;;;;;;;;;4987553;28;20118;-74
2021/12/14 14:04:41;;;;;;;3.40;2.70;;;;;;;;;;4986032;28;20081;-73
2021/12/14 14:07:07;;;;;;;3.80;3.05;;;;;;;;;;4997649;28;20057;-75
2021/12/14 14:09:36;;;;;;;4.05;2.83;;;;;;;;;;4996027;28;20056;-74
2021/12/14 14:12:02;;;;;;;4.55;3.15;;;;;;;;;;5004829;28;20071;-74
2021/12/14 14:14:33;;;;;;;3.83;2.60;;;;;;;;;;4994191;28;20045;-73
2021/12/14 14:17:06;;;;;;;4.50;3.25;;;;;;;;;;4984937;28;20030;-73
2021/12/14 14:19:34;;;;;;;3.35;2.85;;;;;;;;;;4985115;28;20030;-76
2021/12/14 14:22:11;;;;;;;4.00;3.42;;;;;;;;;;4998232;28;20029;-74
2021/12/14 14:24:39;;;;;;;3.35;2.90;;;;;;;;;;5023397;28;20081;-76
2021/12/14 14:27:06;;;;;;;4.47;2.97;;;;;;;;;;5013177;28;20025;-74
2021/12/14 14:29:44;;;;;;;6.55;3.38;;;;;;;;;;5016886;28;20022;-73
2021/12/14 14:32:23;;;;;;;4.20;2.97;;;;;;;;;;5022355;28;20022;-75
2021/12/14 14:34:54;;;;;;;5.28;3.25;;;;;;;;;;4997115;28;20018;-72
2021/12/14 14:37:26;;;;;;;5.60;3.42;;;;;;;;;;5004984;28;20034;-73
2021/12/14 14:40:04;;;;;;;4.30;3.35;;;;;;;;;;5001886;28;20030;-74
2021/12/14 14:42:32;;;;;;;6.47;3.33;;;;;;;;;;5006660;28;20030;-76
2021/12/14 14:45:01;;;;;;;4.53;3.28;;;;;;;;;;5006507;28;20026;-72
2021/12/14 14:47:37;;;;;;;4.78;3.40;;;;;;;;;;5005350;28;20015;-77
2021/12/14 14:50:06;;;;;;;4.38;3.58;;;;;;;;;;5005542;28;20029;-72
2021/12/14 14:52:37;;;;;;;8.07;4.38;;;;;;;;;;5004561;28;20030;-73
2021/12/14 14:55:07;;;;;;;4.72;4.10;;;;;;;;;;4985447;28;20046;-73
2021/12/14 14:57:35;;;;;;;5.40;3.20;;;;;;;;;;4985092;28;20037;-73
2021/12/14 15:00:04;;;;;;;9.15;4.25;;;;;;;;;;4986491;28;20034;-72
2021/12/14 15:02:49;;;;;;;4.97;3.10;;;;;;;;;;4984947;28;20019;-76
2021/12/14 15:05:15;;;;;;;4.80;3.20;;;;;;;;;;4984202;28;20177;-74
2021/12/14 15:08:01;;;;;;;6.25;4.00;;;;;;;;;;4984946;28;20046;-72
2021/12/14 15:10:35;;;;;;;5.00;3.50;;;;;;;;;;5013851;28;20026;-76
2021/12/14 15:13:19;;;;;;;6.38;3.40;;;;;;;;;;5001536;28;20026;-75
2021/12/14 15:15:56;;;;;;;5.40;3.40;;;;;;;;;;4998973;28;20105;-76
2021/12/14 15:18:40;;;;;;;6.30;3.45;;;;;;;;;;5017175;28;20037;-75
2021/12/14 15:21:25;;;;;;;6.50;3.90;;;;;;;;;;5000476;28;20030;-75
2021/12/14 15:23:52;;;;;;;6.05;4.07;;;;;;;;;;4997345;28;20030;-76
2021/12/14 15:26:18;;;;;;;4.68;3.75;;;;;;;;;;5008892;28;20080;-75
2021/12/14 15:28:45;;;;;;;6.07;3.70;;;;;;;;;;5017224;28;20029;-74
2021/12/14 15:31:17;;;;;;;7.82;5.13;;;;;;;;;;5000331;28;20041;-75